sensor_id;sensor_type;location;lat;lon;timestamp;temperature;humidity
4314;DHT22;2170;48.794;9.182;2023-11-21T00:02:11;8.80;99.90
4314;DHT22;2170;48.794;9.182;2023-11-21T00:04:57;8.80;99.90
4314;DHT22;2170;48.794;9.182;2023-11-21T00:07:38;8.80;99.90
4314;DHT22;2170;48.794;9.182;2023-11-21T00:13:17;8.80;99.90
4314;DHT22;2170;48.794;9.182;2023-11-21T00:16:17;8.80;99.90
4314;DHT22;2170;48.794;9.182;2023-11-21T00:19:03;8.80;99.90
4314;DHT22;2170;48.794;9.182;2023-11-21T00:21:36;8.70;99.90
4314;DHT22;2170;48.794;9.182;2023-11-21T00:24:32;8.80;99.90
4314;DHT22;2170;48.794;9.182;2023-11-21T00:27:11;8.70;99.90
4314;DHT22;2170;48.794;9.182;2023-11-21T00:29:52;8.70;99.90
4314;DHT22;2170;48.794;9.182;2023-11-21T00:35:38;8.70;99.90
4314;DHT22;2170;48.794;9.182;2023-11-21T00:38:31;8.70;99.90
4314;DHT22;2170;48.794;9.182;2023-11-21T00:44:29;8.70;99.90
4314;DHT22;2170;48.794;9.182;2023-11-21T00:47:30;8.70;99.90
4314;DHT22;2170;48.794;9.182;2023-11-21T00:50:16;8.70;99.90
4314;DHT22;2170;48.794;9.182;2023-11-21T00:52:52;8.80;99.90
4314;DHT22;2170;48.794;9.182;2023-11-21T00:55:48;9.00;99.90
4314;DHT22;2170;48.794;9.182;2023-11-21T00:58:40;8.70;99.90
4314;DHT22;2170;48.794;9.182;2023-11-21T01:01:30;8.70;99.90
4314;DHT22;2170;48.794;9.182;2023-11-21T01:04:25;8.70;99.90
4314;DHT22;2170;48.794;9.182;2023-11-21T01:13:52;8.70;99.90
4314;DHT22;2170;48.794;9.182;2023-11-21T01:16:48;8.70;99.90
4314;DHT22;2170;48.794;9.182;2023-11-21T01:20:30;8.70;99.90
4314;DHT22;2170;48.794;9.182;2023-11-21T01:23:32;9.00;99.90
4314;DHT22;2170;48.794;9.182;2023-11-21T01:26:42;8.70;99.90
4314;DHT22;2170;48.794;9.182;2023-11-21T01:29:40;8.70;99.90
4314;DHT22;2170;48.794;9.182;2023-11-21T01:33:03;8.70;99.90
4314;DHT22;2170;48.794;9.182;2023-11-21T01:36:01;8.80;99.90
4314;DHT22;2170;48.794;9.182;2023-11-21T01:38:37;8.50;99.90
4314;DHT22;2170;48.794;9.182;2023-11-21T01:41:30;8.70;99.90
4314;DHT22;2170;48.794;9.182;2023-11-21T01:44:18;8.80;99.90
4314;DHT22;2170;48.794;9.182;2023-11-21T01:47:47;8.80;99.90
4314;DHT22;2170;48.794;9.182;2023-11-21T01:50:41;8.80;99.90
4314;DHT22;2170;48.794;9.182;2023-11-21T01:53:42;8.80;99.90
4314;DHT22;2170;48.794;9.182;2023-11-21T01:56:44;8.80;99.90
4314;DHT22;2170;48.794;9.182;2023-11-21T01:59:51;8.80;99.90
4314;DHT22;2170;48.794;9.182;2023-11-21T02:03:12;8.80;99.90
4314;DHT22;2170;48.794;9.182;2023-11-21T02:06:02;8.80;99.90
4314;DHT22;2170;48.794;9.182;2023-11-21T02:12:15;8.80;99.90
4314;DHT22;2170;48.794;9.182;2023-11-21T02:15:00;8.80;99.90
4314;DHT22;2170;48.794;9.182;2023-11-21T02:18:11;8.80;99.90
4314;DHT22;2170;48.794;9.182;2023-11-21T02:21:33;8.80;99.90
4314;DHT22;2170;48.794;9.182;2023-11-21T02:24:39;8.80;99.90
4314;DHT22;2170;48.794;9.182;2023-11-21T02:27:27;8.50;99.90
4314;DHT22;2170;48.794;9.182;2023-11-21T02:29:55;9.00;99.90
4314;DHT22;2170;48.794;9.182;2023-11-21T02:32:58;8.80;99.90
4314;DHT22;2170;48.794;9.182;2023-11-21T02:35:52;8.80;99.90
4314;DHT22;2170;48.794;9.182;2023-11-21T02:38:56;8.80;99.90
4314;DHT22;2170;48.794;9.182;2023-11-21T02:42:09;8.80;99.90
4314;DHT22;2170;48.794;9.182;2023-11-21T02:44:50;8.80;99.90
4314;DHT22;2170;48.794;9.182;2023-11-21T02:47:33;8.80;99.90
4314;DHT22;2170;48.794;9.182;2023-11-21T02:50:44;8.80;99.90
4314;DHT22;2170;48.794;9.182;2023-11-21T02:53:26;9.00;99.90
4314;DHT22;2170;48.794;9.182;2023-11-21T02:56:00;8.80;99.90
4314;DHT22;2170;48.794;9.182;2023-11-21T02:59:27;8.50;99.90
4314;DHT22;2170;48.794;9.182;2023-11-21T03:02:21;8.70;99.90
4314;DHT22;2170;48.794;9.182;2023-11-21T03:08:23;8.70;99.90
4314;DHT22;2170;48.794;9.182;2023-11-21T03:11:26;8.70;99.90
4314;DHT22;2170;48.794;9.182;2023-11-21T03:17:42;8.70;99.90
4314;DHT22;2170;48.794;9.182;2023-11-21T03:21:12;8.70;99.90
4314;DHT22;2170;48.794;9.182;2023-11-21T03:24:04;8.70;99.90
4314;DHT22;2170;48.794;9.182;2023-11-21T03:27:27;8.70;99.90
4314;DHT22;2170;48.794;9.182;2023-11-21T03:30:33;8.70;99.90
4314;DHT22;2170;48.794;9.182;2023-11-21T03:37:14;8.70;99.90
4314;DHT22;2170;48.794;9.182;2023-11-21T03:40:53;8.70;99.90
4314;DHT22;2170;48.794;9.182;2023-11-21T03:43:18;8.70;99.90
4314;DHT22;2170;48.794;9.182;2023-11-21T03:46:23;8.70;99.90
4314;DHT22;2170;48.794;9.182;2023-11-21T03:49:20;8.60;99.90
4314;DHT22;2170;48.794;9.182;2023-11-21T03:52:24;8.60;99.90
4314;DHT22;2170;48.794;9.182;2023-11-21T03:55:21;8.70;99.90
4314;DHT22;2170;48.794;9.182;2023-11-21T03:58:05;8.60;99.90
4314;DHT22;2170;48.794;9.182;2023-11-21T04:01:01;8.60;99.90
4314;DHT22;2170;48.794;9.182;2023-11-21T04:04:26;8.40;99.90
4314;DHT22;2170;48.794;9.182;2023-11-21T04:07:42;8.60;99.90
4314;DHT22;2170;48.794;9.182;2023-11-21T04:10:50;8.40;99.90
4314;DHT22;2170;48.794;9.182;2023-11-21T04:14:14;8.60;99.90
4314;DHT22;2170;48.794;9.182;2023-11-21T04:16:50;8.60;99.90
4314;DHT22;2170;48.794;9.182;2023-11-21T04:19:41;8.60;99.90
4314;DHT22;2170;48.794;9.182;2023-11-21T04:28:35;8.60;99.90
4314;DHT22;2170;48.794;9.182;2023-11-21T04:31:26;8.60;99.90
4314;DHT22;2170;48.794;9.182;2023-11-21T04:34:25;8.60;99.90
4314;DHT22;2170;48.794;9.182;2023-11-21T04:37:09;8.50;99.90
4314;DHT22;2170;48.794;9.182;2023-11-21T04:39:59;8.50;99.90
4314;DHT22;2170;48.794;9.182;2023-11-21T04:42:52;8.50;99.90
4314;DHT22;2170;48.794;9.182;2023-11-21T04:45:39;8.50;99.90
4314;DHT22;2170;48.794;9.182;2023-11-21T04:48:16;8.50;99.90
4314;DHT22;2170;48.794;9.182;2023-11-21T04:51:02;8.50;99.90
4314;DHT22;2170;48.794;9.182;2023-11-21T04:54:04;8.50;99.90
4314;DHT22;2170;48.794;9.182;2023-11-21T04:56:34;8.40;99.90
4314;DHT22;2170;48.794;9.182;2023-11-21T04:59:37;8.20;99.90
4314;DHT22;2170;48.794;9.182;2023-11-21T05:02:44;8.40;99.90
4314;DHT22;2170;48.794;9.182;2023-11-21T05:06:12;8.40;99.90
4314;DHT22;2170;48.794;9.182;2023-11-21T05:12:13;8.40;99.90
4314;DHT22;2170;48.794;9.182;2023-11-21T05:18:50;8.10;99.90
4314;DHT22;2170;48.794;9.182;2023-11-21T05:21:51;8.40;99.90
4314;DHT22;2170;48.794;9.182;2023-11-21T05:24:51;8.60;99.90
4314;DHT22;2170;48.794;9.182;2023-11-21T05:28:35;8.40;99.90
4314;DHT22;2170;48.794;9.182;2023-11-21T05:31:03;8.40;99.90
4314;DHT22;2170;48.794;9.182;2023-11-21T05:33:49;8.40;99.90
4314;DHT22;2170;48.794;9.182;2023-11-21T05:39:34;8.10;99.90
4314;DHT22;2170;48.794;9.182;2023-11-21T05:42:37;8.40;99.90
4314;DHT22;2170;48.794;9.182;2023-11-21T05:45:13;8.40;99.90
4314;DHT22;2170;48.794;9.182;2023-11-21T05:48:07;8.40;99.90
4314;DHT22;2170;48.794;9.182;2023-11-21T05:51:02;8.40;99.90
4314;DHT22;2170;48.794;9.182;2023-11-21T05:53:42;8.50;99.90
4314;DHT22;2170;48.794;9.182;2023-11-21T05:56:28;8.40;99.90
4314;DHT22;2170;48.794;9.182;2023-11-21T05:59:11;8.40;99.90
4314;DHT22;2170;48.794;9.182;2023-11-21T06:01:45;8.50;99.90
4314;DHT22;2170;48.794;9.182;2023-11-21T06:04:35;8.50;99.90
4314;DHT22;2170;48.794;9.182;2023-11-21T06:07:20;8.50;99.90
4314;DHT22;2170;48.794;9.182;2023-11-21T06:10:06;8.40;99.90
4314;DHT22;2170;48.794;9.182;2023-11-21T06:12:58;8.50;99.90
4314;DHT22;2170;48.794;9.182;2023-11-21T06:15:45;8.60;99.90
4314;DHT22;2170;48.794;9.182;2023-11-21T06:18:43;8.50;99.90
4314;DHT22;2170;48.794;9.182;2023-11-21T06:25:03;8.50;99.90
4314;DHT22;2170;48.794;9.182;2023-11-21T06:31:10;8.50;99.90
4314;DHT22;2170;48.794;9.182;2023-11-21T06:34:21;8.70;99.90
4314;DHT22;2170;48.794;9.182;2023-11-21T06:37:23;8.80;99.90
4314;DHT22;2170;48.794;9.182;2023-11-21T06:43:18;8.70;99.90
4314;DHT22;2170;48.794;9.182;2023-11-21T06:46:02;8.40;99.90
4314;DHT22;2170;48.794;9.182;2023-11-21T06:48:43;8.70;99.90
4314;DHT22;2170;48.794;9.182;2023-11-21T06:51:45;8.60;99.90
4314;DHT22;2170;48.794;9.182;2023-11-21T06:55:43;8.60;99.90
4314;DHT22;2170;48.794;9.182;2023-11-21T06:57:50;8.60;99.90
4314;DHT22;2170;48.794;9.182;2023-11-21T07:00:53;8.60;99.90
4314;DHT22;2170;48.794;9.182;2023-11-21T07:03:37;8.60;99.90
4314;DHT22;2170;48.794;9.182;2023-11-21T07:06:21;8.60;99.90
4314;DHT22;2170;48.794;9.182;2023-11-21T07:09:25;8.60;99.90
4314;DHT22;2170;48.794;9.182;2023-11-21T07:12:35;8.60;99.90
4314;DHT22;2170;48.794;9.182;2023-11-21T07:18:44;8.60;99.90
4314;DHT22;2170;48.794;9.182;2023-11-21T07:21:33;8.60;99.90
4314;DHT22;2170;48.794;9.182;2023-11-21T07:24:22;8.70;99.90
4314;DHT22;2170;48.794;9.182;2023-11-21T07:27:01;8.60;99.90
4314;DHT22;2170;48.794;9.182;2023-11-21T07:29:36;8.70;99.90
4314;DHT22;2170;48.794;9.182;2023-11-21T07:32:40;8.70;99.90
4314;DHT22;2170;48.794;9.182;2023-11-21T07:36:51;8.60;99.90
4314;DHT22;2170;48.794;9.182;2023-11-21T07:39:03;8.70;99.90
4314;DHT22;2170;48.794;9.182;2023-11-21T07:41:55;8.70;99.90
4314;DHT22;2170;48.794;9.182;2023-11-21T07:44:37;8.70;99.90
4314;DHT22;2170;48.794;9.182;2023-11-21T07:47:56;8.70;99.90
4314;DHT22;2170;48.794;9.182;2023-11-21T07:50:28;8.50;99.90
4314;DHT22;2170;48.794;9.182;2023-11-21T07:53:12;8.80;99.90
4314;DHT22;2170;48.794;9.182;2023-11-21T07:55:54;8.80;99.90
4314;DHT22;2170;48.794;9.182;2023-11-21T07:58:26;8.80;99.90
4314;DHT22;2170;48.794;9.182;2023-11-21T08:01:07;8.80;99.90
4314;DHT22;2170;48.794;9.182;2023-11-21T08:04:01;8.80;99.90
4314;DHT22;2170;48.794;9.182;2023-11-21T08:06:45;8.80;99.90
4314;DHT22;2170;48.794;9.182;2023-11-21T08:09:40;8.90;99.90
4314;DHT22;2170;48.794;9.182;2023-11-21T08:12:30;8.90;99.90
4314;DHT22;2170;48.794;9.182;2023-11-21T08:15:27;8.90;99.90
4314;DHT22;2170;48.794;9.182;2023-11-21T08:18:33;8.90;99.90
4314;DHT22;2170;48.794;9.182;2023-11-21T08:21:47;9.00;99.90
4314;DHT22;2170;48.794;9.182;2023-11-21T08:25:22;9.00;99.90
4314;DHT22;2170;48.794;9.182;2023-11-21T08:29:27;9.00;99.90
4314;DHT22;2170;48.794;9.182;2023-11-21T08:30:57;9.10;99.90
4314;DHT22;2170;48.794;9.182;2023-11-21T08:34:08;9.40;99.90
4314;DHT22;2170;48.794;9.182;2023-11-21T08:44:37;9.20;99.90
4314;DHT22;2170;48.794;9.182;2023-11-21T08:47:59;9.00;99.90
4314;DHT22;2170;48.794;9.182;2023-11-21T08:54:53;9.30;99.90
4314;DHT22;2170;48.794;9.182;2023-11-21T08:58:13;9.30;99.90
4314;DHT22;2170;48.794;9.182;2023-11-21T09:08:12;9.50;99.90
4314;DHT22;2170;48.794;9.182;2023-11-21T09:11:28;9.60;99.90
4314;DHT22;2170;48.794;9.182;2023-11-21T09:14:53;9.60;99.90
4314;DHT22;2170;48.794;9.182;2023-11-21T09:21:38;9.70;99.90
4314;DHT22;2170;48.794;9.182;2023-11-21T09:35:05;10.10;99.90
4314;DHT22;2170;48.794;9.182;2023-11-21T09:45:22;9.90;99.90
4314;DHT22;2170;48.794;9.182;2023-11-21T09:48:49;9.80;99.90
4314;DHT22;2170;48.794;9.182;2023-11-21T12:25:51;10.60;99.90
4314;DHT22;2170;48.794;9.182;2023-11-21T12:32:07;10.70;99.90
4314;DHT22;2170;48.794;9.182;2023-11-21T12:34:56;10.80;99.90
4314;DHT22;2170;48.794;9.182;2023-11-21T12:37:30;10.90;99.90
4314;DHT22;2170;48.794;9.182;2023-11-21T12:40:11;11.00;99.90
4314;DHT22;2170;48.794;9.182;2023-11-21T12:42:52;11.00;99.90
4314;DHT22;2170;48.794;9.182;2023-11-21T12:49:23;10.70;99.90
4314;DHT22;2170;48.794;9.182;2023-11-21T12:51:59;10.70;99.90
4314;DHT22;2170;48.794;9.182;2023-11-21T12:55:09;10.80;99.90
4314;DHT22;2170;48.794;9.182;2023-11-21T12:58:49;10.80;99.90
4314;DHT22;2170;48.794;9.182;2023-11-21T13:11:33;10.60;99.90
4314;DHT22;2170;48.794;9.182;2023-11-21T13:14:16;10.80;99.90
4314;DHT22;2170;48.794;9.182;2023-11-21T13:20:42;10.80;99.90
4314;DHT22;2170;48.794;9.182;2023-11-21T13:24:00;10.40;99.90
4314;DHT22;2170;48.794;9.182;2023-11-21T13:30:04;9.90;99.90
4314;DHT22;2170;48.794;9.182;2023-11-21T13:32:38;9.70;99.90
4314;DHT22;2170;48.794;9.182;2023-11-21T13:35:37;9.50;99.90
4314;DHT22;2170;48.794;9.182;2023-11-21T13:38:11;9.60;99.90
4314;DHT22;2170;48.794;9.182;2023-11-21T13:47:49;9.60;99.90
4314;DHT22;2170;48.794;9.182;2023-11-21T13:50:19;9.50;99.90
4314;DHT22;2170;48.794;9.182;2023-11-21T13:53:11;9.40;99.90
4314;DHT22;2170;48.794;9.182;2023-11-21T13:55:52;9.40;99.90
4314;DHT22;2170;48.794;9.182;2023-11-21T13:58:31;9.60;99.90
4314;DHT22;2170;48.794;9.182;2023-11-21T14:01:32;9.60;99.90
4314;DHT22;2170;48.794;9.182;2023-11-21T14:04:25;9.70;99.90
4314;DHT22;2170;48.794;9.182;2023-11-21T14:07:23;9.70;99.90
4314;DHT22;2170;48.794;9.182;2023-11-21T14:10:23;9.70;99.90
4314;DHT22;2170;48.794;9.182;2023-11-21T14:12:56;9.70;99.90
4314;DHT22;2170;48.794;9.182;2023-11-21T14:15:45;9.70;99.90
4314;DHT22;2170;48.794;9.182;2023-11-21T14:18:39;9.60;99.90
4314;DHT22;2170;48.794;9.182;2023-11-21T14:21:24;9.60;99.90
4314;DHT22;2170;48.794;9.182;2023-11-21T14:31:07;9.40;99.90
4314;DHT22;2170;48.794;9.182;2023-11-21T14:33:29;9.60;99.90
4314;DHT22;2170;48.794;9.182;2023-11-21T14:39:11;9.60;99.90
4314;DHT22;2170;48.794;9.182;2023-11-21T14:42:11;9.60;99.90
4314;DHT22;2170;48.794;9.182;2023-11-21T14:45:00;9.60;99.90
4314;DHT22;2170;48.794;9.182;2023-11-21T14:47:38;9.60;99.90
4314;DHT22;2170;48.794;9.182;2023-11-21T14:50:23;9.50;99.90
4314;DHT22;2170;48.794;9.182;2023-11-21T14:53:09;9.60;99.90
4314;DHT22;2170;48.794;9.182;2023-11-21T14:56:29;9.60;99.90
4314;DHT22;2170;48.794;9.182;2023-11-21T14:59:25;9.60;99.90
4314;DHT22;2170;48.794;9.182;2023-11-21T15:02:05;9.60;99.90
4314;DHT22;2170;48.794;9.182;2023-11-21T15:04:56;9.50;99.90
4314;DHT22;2170;48.794;9.182;2023-11-21T15:07:33;9.60;99.90
4314;DHT22;2170;48.794;9.182;2023-11-21T15:10:06;9.60;99.90
4314;DHT22;2170;48.794;9.182;2023-11-21T15:12:48;9.50;99.90
4314;DHT22;2170;48.794;9.182;2023-11-21T15:15:18;9.50;99.90
4314;DHT22;2170;48.794;9.182;2023-11-21T15:17:49;9.50;99.90
4314;DHT22;2170;48.794;9.182;2023-11-21T15:20:28;9.50;99.90
4314;DHT22;2170;48.794;9.182;2023-11-21T16:07:46;9.20;99.90
4314;DHT22;2170;48.794;9.182;2023-11-21T16:43:52;9.10;99.90
4314;DHT22;2170;48.794;9.182;2023-11-21T16:48:13;9.10;99.90
4314;DHT22;2170;48.794;9.182;2023-11-21T16:58:53;9.00;99.90
4314;DHT22;2170;48.794;9.182;2023-11-21T17:01:11;9.00;99.90
4314;DHT22;2170;48.794;9.182;2023-11-21T17:06:03;8.90;99.90
4314;DHT22;2170;48.794;9.182;2023-11-21T18:51:10;8.50;99.90
4314;DHT22;2170;48.794;9.182;2023-11-21T18:58:21;8.50;99.90
4314;DHT22;2170;48.794;9.182;2023-11-21T19:04:29;8.50;99.90
4314;DHT22;2170;48.794;9.182;2023-11-21T19:14:40;8.50;99.90
4314;DHT22;2170;48.794;9.182;2023-11-21T19:22:31;8.50;99.90
4314;DHT22;2170;48.794;9.182;2023-11-21T19:24:50;8.50;99.90
4314;DHT22;2170;48.794;9.182;2023-11-21T19:38:13;8.50;99.90
4314;DHT22;2170;48.794;9.182;2023-11-21T19:44:55;8.50;99.90
4314;DHT22;2170;48.794;9.182;2023-11-21T20:05:00;8.40;99.90
4314;DHT22;2170;48.794;9.182;2023-11-21T20:14:27;8.40;99.90
4314;DHT22;2170;48.794;9.182;2023-11-21T20:23:11;8.40;99.90
4314;DHT22;2170;48.794;9.182;2023-11-21T20:25:46;8.40;99.90
